createdAt,value
2019-03-12T00:00:58.030Z,22.00
2019-03-12T00:01:58.133Z,21.99
2019-03-12T00:02:58.009Z,21.99
2019-03-12T00:03:57.999Z,21.99
2019-03-12T00:04:57.990Z,21.98
2019-03-12T00:05:57.976Z,21.99
2019-03-12T00:06:57.960Z,22.02
2019-03-12T00:07:58.310Z,22.00
2019-03-12T00:08:57.946Z,22.00
2019-03-12T00:09:57.939Z,21.99
2019-03-12T00:10:58.025Z,21.99
2019-03-12T00:11:57.912Z,21.95
2019-03-12T00:12:58.297Z,21.98
2019-03-12T00:13:57.909Z,21.99
2019-03-12T00:14:58.018Z,21.98
2019-03-12T00:15:57.981Z,21.98
2019-03-12T00:16:57.853Z,22.00
2019-03-12T00:17:57.856Z,21.96
2019-03-12T00:18:57.961Z,21.98
2019-03-12T00:19:58.120Z,21.96
2019-03-12T00:20:57.812Z,21.99
2019-03-12T00:21:57.805Z,21.96
2019-03-12T00:22:57.793Z,21.98
2019-03-12T00:23:57.899Z,22.02
2019-03-12T00:24:57.830Z,21.96
2019-03-12T00:25:58.214Z,21.98
2019-03-12T00:26:57.746Z,21.98
2019-03-12T00:27:57.748Z,21.96
2019-03-12T00:28:57.723Z,21.98
2019-03-12T00:29:57.715Z,22.00
2019-03-12T00:30:57.697Z,21.98
2019-03-12T00:31:57.848Z,22.00
2019-03-12T00:32:57.675Z,21.98
2019-03-12T00:33:57.666Z,21.95
2019-03-12T00:34:57.657Z,21.98
2019-03-12T00:35:57.955Z,22.06
2019-03-12T00:36:57.640Z,22.06
2019-03-12T00:37:57.806Z,22.00
2019-03-12T00:38:57.608Z,21.96
2019-03-12T00:39:57.596Z,21.98
2019-03-12T00:40:57.590Z,22.02
2019-03-12T00:41:57.597Z,22.02
2019-03-12T00:43:04.791Z,22.02
2019-03-12T00:43:57.553Z,21.98
2019-03-12T00:44:57.549Z,21.96
2019-03-12T00:45:57.528Z,22.02
2019-03-12T00:46:57.522Z,22.02
2019-03-12T00:47:57.634Z,22.02
2019-03-12T00:48:57.534Z,22.02
2019-03-12T00:49:57.617Z,21.98
2019-03-12T00:50:57.561Z,22.00
2019-03-12T00:51:57.467Z,22.02
2019-03-12T00:52:57.455Z,21.93
2019-03-12T00:53:57.569Z,21.99
2019-03-12T00:54:57.887Z,21.96
2019-03-12T00:55:57.424Z,21.96
2019-03-12T00:56:57.402Z,21.98
2019-03-12T00:57:57.397Z,21.95
2019-03-12T00:58:57.389Z,21.96
2019-03-12T00:59:57.406Z,22.00
2019-03-12T01:00:57.921Z,21.99
2019-03-12T01:01:57.350Z,22.00
2019-03-12T01:02:57.356Z,21.98
2019-03-12T01:03:57.355Z,21.93
2019-03-12T01:04:57.467Z,21.96
2019-03-12T01:05:57.315Z,21.99
2019-03-12T01:06:57.331Z,22.04
2019-03-12T01:07:57.287Z,21.99
2019-03-12T01:09:04.801Z,21.96
2019-03-12T01:09:57.390Z,22.04
2019-03-12T01:10:57.240Z,22.00
2019-03-12T01:11:57.225Z,21.99
2019-03-12T01:12:57.308Z,21.91
2019-03-12T01:13:57.323Z,21.93
2019-03-12T01:14:57.203Z,21.91
2019-03-12T01:15:57.194Z,21.93
2019-03-12T01:16:57.290Z,21.99
2019-03-12T01:17:57.166Z,22.06
2019-03-12T01:18:57.577Z,22.02
2019-03-12T01:19:57.150Z,21.96
2019-03-12T01:20:57.127Z,21.91
2019-03-12T01:22:04.826Z,21.95
2019-03-12T01:22:57.276Z,21.96
2019-03-12T01:23:57.094Z,21.95
2019-03-12T01:24:57.121Z,21.99
2019-03-12T01:25:57.068Z,21.96
2019-03-12T01:26:57.217Z,21.99
2019-03-12T01:27:57.048Z,22.02
2019-03-12T01:28:57.035Z,22.02
2019-03-12T01:30:04.930Z,21.99
2019-03-12T01:30:57.069Z,21.98
2019-03-12T01:31:57.003Z,21.96
2019-03-12T01:32:56.992Z,21.95
2019-03-12T01:33:56.987Z,21.93
2019-03-12T01:34:57.074Z,21.98
2019-03-12T01:35:57.983Z,21.91
2019-03-12T01:36:56.943Z,21.99
2019-03-12T01:37:56.930Z,21.99
2019-03-12T01:38:57.281Z,21.96
2019-03-12T01:40:04.908Z,21.91
2019-03-12T01:40:56.998Z,21.95
2019-03-12T01:41:56.940Z,21.95
2019-03-12T01:42:56.879Z,21.95
2019-03-12T01:43:57.028Z,21.95
2019-03-12T01:44:56.962Z,21.96
2019-03-12T01:45:56.844Z,21.95
2019-03-12T01:46:56.936Z,21.95
2019-03-12T01:47:57.317Z,21.98
2019-03-12T01:48:56.813Z,21.98
2019-03-12T01:50:04.430Z,21.95
2019-03-12T01:50:56.994Z,21.96
2019-03-12T01:51:56.784Z,21.99
2019-03-12T01:52:56.763Z,21.98
2019-03-12T01:53:57.039Z,21.95
2019-03-12T01:54:56.753Z,21.89
2019-03-12T01:55:56.729Z,21.89
2019-03-12T01:56:56.721Z,21.89
2019-03-12T01:57:56.713Z,21.93
2019-03-12T01:58:56.699Z,21.99
2019-03-12T01:59:56.722Z,21.98
2019-03-12T02:00:56.676Z,21.93
2019-03-12T02:01:56.676Z,21.93
2019-03-12T02:02:56.652Z,21.91
2019-03-12T02:03:56.649Z,21.96
2019-03-12T02:04:56.669Z,21.89
2019-03-12T02:05:56.672Z,21.92
2019-03-12T02:06:57.621Z,21.95
2019-03-12T02:07:56.598Z,21.98
2019-03-12T02:08:56.582Z,21.98
2019-03-12T02:09:56.578Z,21.99
2019-03-12T02:10:56.571Z,21.98
2019-03-12T02:12:04.020Z,21.92
2019-03-12T02:13:04.514Z,21.95
2019-03-12T02:13:56.528Z,21.89
2019-03-12T02:14:56.524Z,21.85
2019-03-12T02:15:56.516Z,21.91
2019-03-12T02:16:56.497Z,21.95
2019-03-12T02:17:56.500Z,21.93
2019-03-12T02:18:56.511Z,21.95
2019-03-12T02:19:56.462Z,21.96
2019-03-12T02:20:56.453Z,21.98
2019-03-12T02:21:56.446Z,21.93
2019-03-12T02:22:56.431Z,21.95
2019-03-12T02:23:56.451Z,21.95
2019-03-12T02:24:56.863Z,21.99
2019-03-12T02:25:56.397Z,21.95
2019-03-12T02:26:57.272Z,21.91
2019-03-12T02:27:56.380Z,21.95
2019-03-12T02:28:56.446Z,21.89
2019-03-12T02:29:56.376Z,21.89
2019-03-12T02:30:56.516Z,21.85
2019-03-12T02:31:56.439Z,21.88
2019-03-12T02:32:56.437Z,21.88
2019-03-12T02:33:56.515Z,21.89
2019-03-12T02:34:56.404Z,21.98
2019-03-12T02:35:56.887Z,21.96
2019-03-12T02:36:56.377Z,21.83
2019-03-12T02:37:56.521Z,21.80
2019-03-12T02:38:56.918Z,21.92
2019-03-12T02:39:56.343Z,21.93
2019-03-12T02:40:57.036Z,21.92
2019-03-12T02:41:56.520Z,21.85
2019-03-12T02:42:56.306Z,21.96
2019-03-12T02:43:56.308Z,21.92
2019-03-12T02:44:56.389Z,21.93
2019-03-12T02:45:56.274Z,21.92
2019-03-12T02:46:56.266Z,21.98
2019-03-12T02:47:57.487Z,21.92
2019-03-12T02:48:57.046Z,21.89
2019-03-12T02:49:56.231Z,21.95
2019-03-12T02:50:59.345Z,21.85
2019-03-12T02:51:56.205Z,21.91
2019-03-12T02:52:57.173Z,21.96
2019-03-12T02:53:57.541Z,21.98
2019-03-12T02:54:56.182Z,21.98
2019-03-12T02:55:56.160Z,21.95
2019-03-12T02:56:56.273Z,21.88
2019-03-12T02:57:56.146Z,21.85
2019-03-12T02:58:56.137Z,21.93
2019-03-12T02:59:56.667Z,21.92
2019-03-12T03:00:56.104Z,21.91
2019-03-12T03:01:56.236Z,21.95
2019-03-12T03:02:56.629Z,21.96
2019-03-12T03:03:56.756Z,21.96
2019-03-12T03:04:56.060Z,21.92
2019-03-12T03:05:57.103Z,21.89
2019-03-12T03:06:56.033Z,21.89
2019-03-12T03:07:56.051Z,21.98
2019-03-12T03:08:56.009Z,21.99
2019-03-12T03:09:56.901Z,21.96
2019-03-12T03:10:55.997Z,21.95
2019-03-12T03:11:56.189Z,21.93
2019-03-12T03:12:55.979Z,21.95
2019-03-12T03:13:55.957Z,21.95
2019-03-12T03:14:55.952Z,21.95
2019-03-12T03:15:55.940Z,21.95
2019-03-12T03:16:55.937Z,21.99
2019-03-12T03:17:56.197Z,21.80
2019-03-12T03:18:55.907Z,21.95
2019-03-12T03:19:55.893Z,21.82
2019-03-12T03:20:56.533Z,21.92
2019-03-12T03:21:55.880Z,21.89
2019-03-12T03:23:03.806Z,21.82
2019-03-12T03:23:55.845Z,21.80
2019-03-12T03:24:55.839Z,21.80
2019-03-12T03:25:55.829Z,21.80
2019-03-12T03:26:57.117Z,21.80
2019-03-12T03:27:55.796Z,21.91
2019-03-12T03:28:56.213Z,21.77
2019-03-12T03:29:55.787Z,21.92
2019-03-12T03:30:55.773Z,21.92
2019-03-12T03:31:55.764Z,21.80
2019-03-12T03:32:55.770Z,21.80
2019-03-12T03:33:55.734Z,21.92
2019-03-12T03:34:55.903Z,21.91
2019-03-12T03:35:55.707Z,21.91
2019-03-12T03:36:55.705Z,21.88
2019-03-12T03:37:55.698Z,21.77
2019-03-12T03:38:55.710Z,21.92
2019-03-12T03:39:56.002Z,21.91
2019-03-12T03:40:55.690Z,21.91
2019-03-12T03:41:55.649Z,21.92
2019-03-12T03:42:55.629Z,21.89
2019-03-12T03:43:56.209Z,21.85
2019-03-12T03:44:55.605Z,21.83
2019-03-12T03:45:56.197Z,21.77
2019-03-12T03:46:55.644Z,21.77
2019-03-12T03:47:55.579Z,21.79
2019-03-12T03:48:55.564Z,21.80
2019-03-12T03:49:56.594Z,21.91
2019-03-12T03:50:55.570Z,21.92
2019-03-12T03:51:55.558Z,21.91
2019-03-12T03:52:55.640Z,21.92
2019-03-12T03:53:56.096Z,21.83
2019-03-12T03:54:55.493Z,21.92
2019-03-12T03:55:55.830Z,21.91
2019-03-12T03:56:56.101Z,21.79
2019-03-12T03:57:55.475Z,21.80
2019-03-12T03:58:55.931Z,21.91
2019-03-12T03:59:55.443Z,21.89
2019-03-12T04:00:56.100Z,21.82
2019-03-12T04:01:55.447Z,21.83
2019-03-12T04:02:56.832Z,21.92
2019-03-12T04:03:55.399Z,21.85
2019-03-12T04:04:56.133Z,21.85
2019-03-12T04:05:55.377Z,21.82
2019-03-12T04:06:55.367Z,21.77
2019-03-12T04:07:55.369Z,21.79
2019-03-12T04:08:55.345Z,21.82
2019-03-12T04:09:55.328Z,21.80
2019-03-12T04:10:56.496Z,21.89
2019-03-12T04:11:55.305Z,21.93
2019-03-12T04:12:55.294Z,21.85
2019-03-12T04:13:56.362Z,21.77
2019-03-12T04:14:55.271Z,21.83
2019-03-12T04:15:55.340Z,21.95
2019-03-12T04:16:55.735Z,21.88
2019-03-12T04:17:55.239Z,21.83
2019-03-12T04:18:55.233Z,21.75
2019-03-12T04:19:56.151Z,21.80
2019-03-12T04:20:55.203Z,21.92
2019-03-12T04:21:55.198Z,21.80
2019-03-12T04:22:56.411Z,21.80
2019-03-12T04:23:55.172Z,21.93
2019-03-12T04:24:55.156Z,21.85
2019-03-12T04:25:55.147Z,21.79
2019-03-12T04:26:55.136Z,21.79
2019-03-12T04:27:55.150Z,21.92
2019-03-12T04:28:55.656Z,21.92
2019-03-12T04:29:55.099Z,21.92
2019-03-12T04:30:55.705Z,21.80
2019-03-12T04:31:55.093Z,21.77
2019-03-12T04:32:55.208Z,21.92
2019-03-12T04:33:55.058Z,21.92
2019-03-12T04:34:55.883Z,21.88
2019-03-12T04:35:55.072Z,21.85
2019-03-12T04:36:55.146Z,21.85
2019-03-12T04:37:55.013Z,21.89
2019-03-12T04:38:55.004Z,21.77
2019-03-12T04:39:56.110Z,21.82
2019-03-12T04:40:55.065Z,21.80
2019-03-12T04:41:54.971Z,21.89
2019-03-12T04:42:54.968Z,21.77
2019-03-12T04:43:54.951Z,21.82
2019-03-12T04:44:55.105Z,21.80
2019-03-12T04:45:54.918Z,21.85
2019-03-12T04:46:55.043Z,21.79
2019-03-12T04:47:54.915Z,21.85
2019-03-12T04:49:02.743Z,21.91
2019-03-12T04:49:54.940Z,21.80
2019-03-12T04:50:55.736Z,21.93
2019-03-12T04:51:54.862Z,21.92
2019-03-12T04:52:56.148Z,21.92
2019-03-12T04:53:54.840Z,21.85
2019-03-12T04:54:55.650Z,21.80
2019-03-12T04:55:54.807Z,21.82
2019-03-12T04:56:54.792Z,21.79
2019-03-12T04:57:54.779Z,21.77
2019-03-12T04:58:54.930Z,21.79
2019-03-12T04:59:55.650Z,21.80
2019-03-12T05:00:54.758Z,21.92
2019-03-12T05:01:54.764Z,21.95
2019-03-12T05:02:54.734Z,21.91
2019-03-12T05:03:54.713Z,21.82
2019-03-12T05:04:54.832Z,21.93
2019-03-12T05:06:02.305Z,21.82
2019-03-12T05:06:54.688Z,21.91
2019-03-12T05:07:54.680Z,21.79
2019-03-12T05:08:54.659Z,21.83
2019-03-12T05:09:55.698Z,21.93
2019-03-12T05:10:55.235Z,21.92
2019-03-12T05:11:54.648Z,21.91
2019-03-12T05:12:54.646Z,21.96
2019-03-12T05:13:54.603Z,21.91
2019-03-12T05:14:54.595Z,21.91
2019-03-12T05:15:54.586Z,21.91
2019-03-12T05:16:54.665Z,21.92
2019-03-12T05:17:54.560Z,21.92
2019-03-12T05:18:54.552Z,21.95
2019-03-12T05:19:54.555Z,21.85
2019-03-12T05:20:54.523Z,21.82
2019-03-12T05:21:54.525Z,21.95
2019-03-12T05:22:55.202Z,21.96
2019-03-12T05:23:54.644Z,21.91
2019-03-12T05:24:54.481Z,21.89
2019-03-12T05:25:54.474Z,21.92
2019-03-12T05:26:54.546Z,21.92
2019-03-12T05:27:54.448Z,21.80
2019-03-12T05:28:55.203Z,21.80
2019-03-12T05:29:55.705Z,21.93
2019-03-12T05:30:54.412Z,21.95
2019-03-12T05:31:54.400Z,21.85
2019-03-12T05:32:54.531Z,21.92
2019-03-12T05:33:55.300Z,21.83
2019-03-12T05:34:54.865Z,21.91
2019-03-12T05:35:54.386Z,21.92
2019-03-12T05:36:54.357Z,21.82
2019-03-12T05:37:55.207Z,21.89
2019-03-12T05:38:54.332Z,21.92
2019-03-12T05:39:54.307Z,21.89
2019-03-12T05:40:54.808Z,21.82
2019-03-12T05:41:58.858Z,21.83
2019-03-12T05:42:54.273Z,21.96
2019-03-12T05:43:55.454Z,21.95
2019-03-12T05:44:54.251Z,21.92
2019-03-12T05:45:54.400Z,21.89
2019-03-12T05:46:55.209Z,21.96
2019-03-12T05:47:55.208Z,21.89
2019-03-12T05:48:54.210Z,21.88
2019-03-12T05:49:54.513Z,21.95
2019-03-12T05:50:54.563Z,21.89
2019-03-12T05:51:54.710Z,21.95
2019-03-12T05:52:54.269Z,21.96
2019-03-12T05:53:54.876Z,21.98
2019-03-12T05:54:54.149Z,21.99
2019-03-12T05:55:55.710Z,22.04
2019-03-12T05:56:54.123Z,21.95
2019-03-12T05:57:54.716Z,21.91
2019-03-12T05:58:54.642Z,21.98
2019-03-12T05:59:54.488Z,21.99
2019-03-12T06:00:54.713Z,22.00
2019-03-12T06:01:54.062Z,21.99
2019-03-12T06:02:54.153Z,22.02
2019-03-12T06:03:54.036Z,21.95
2019-03-12T06:04:54.961Z,21.98
2019-03-12T06:05:54.023Z,21.96
2019-03-12T06:06:54.032Z,22.06
2019-03-12T06:07:55.515Z,21.99
2019-03-12T06:08:53.984Z,21.92
2019-03-12T06:09:53.998Z,22.04
2019-03-12T06:10:55.213Z,21.93
2019-03-12T06:11:54.054Z,21.98
2019-03-12T06:12:54.284Z,21.98
2019-03-12T06:13:55.718Z,21.98
2019-03-12T06:14:54.719Z,21.96
2019-03-12T06:15:53.905Z,21.98
2019-03-12T06:16:54.716Z,22.00
2019-03-12T06:17:55.965Z,22.02
2019-03-12T06:18:53.875Z,22.07
2019-03-12T06:19:53.859Z,22.10
2019-03-12T06:20:53.850Z,22.11
2019-03-12T06:21:54.305Z,22.07
2019-03-12T06:22:54.888Z,22.08
2019-03-12T06:23:54.810Z,21.99
2019-03-12T06:24:54.459Z,22.10
2019-03-12T06:25:55.220Z,22.00
2019-03-12T06:26:53.782Z,22.06
2019-03-12T06:27:53.769Z,22.11
2019-03-12T06:28:53.993Z,22.04
2019-03-12T06:29:53.752Z,21.99
2019-03-12T06:30:54.995Z,22.07
2019-03-12T06:31:53.724Z,21.98
2019-03-12T06:32:54.721Z,21.95
2019-03-12T06:33:53.790Z,22.02
2019-03-12T06:34:54.166Z,22.02
2019-03-12T06:35:54.497Z,22.06
2019-03-12T06:36:53.962Z,22.07
2019-03-12T06:37:54.640Z,22.10
2019-03-12T06:38:53.613Z,22.07
2019-03-12T06:39:53.629Z,22.20
2019-03-12T06:41:54.619Z,22.08
2019-03-12T06:42:54.053Z,22.18
2019-03-12T06:43:53.487Z,22.15
2019-03-12T06:44:53.607Z,22.07
2019-03-12T06:45:53.477Z,22.18
2019-03-12T06:46:55.754Z,22.14
2019-03-12T06:47:53.451Z,22.18
2019-03-12T06:48:53.470Z,22.18
2019-03-12T06:49:54.398Z,22.15
2019-03-12T06:50:53.532Z,22.11
2019-03-12T06:51:53.608Z,22.08
2019-03-12T06:52:53.575Z,22.13
2019-03-12T06:53:54.078Z,22.07
2019-03-12T06:54:53.597Z,22.14
2019-03-12T06:55:53.458Z,22.14
2019-03-12T06:56:53.463Z,22.18
2019-03-12T06:57:53.634Z,22.20
2019-03-12T06:58:54.276Z,22.11
2019-03-12T06:59:53.301Z,22.14
2019-03-12T07:02:33.556Z,22.23
2019-03-12T07:03:30.188Z,22.26
2019-03-12T07:04:43.617Z,22.28
2019-03-12T07:05:31.177Z,22.23
2019-03-12T07:06:30.424Z,22.29
2019-03-12T07:07:34.489Z,22.13
2019-03-12T07:08:31.662Z,22.11
2019-03-12T07:09:29.598Z,22.13
2019-03-12T07:10:30.429Z,22.14
2019-03-12T07:11:30.419Z,22.20
2019-03-12T07:12:29.712Z,22.14
2019-03-12T07:13:29.034Z,22.15
2019-03-12T07:14:29.959Z,22.15
2019-03-12T07:15:29.892Z,22.11
2019-03-12T07:16:33.393Z,22.07
2019-03-12T07:17:29.439Z,22.11
2019-03-12T07:18:29.118Z,22.18
2019-03-12T07:19:32.557Z,22.14
2019-03-12T07:20:29.930Z,22.04
2019-03-12T07:21:36.162Z,22.22
2019-03-12T07:22:28.625Z,22.14
2019-03-12T07:23:29.109Z,22.13
2019-03-12T07:24:31.458Z,22.13
2019-03-12T07:29:23.401Z,22.18
2019-03-12T07:30:13.060Z,22.15
2019-03-12T07:31:11.628Z,22.10
2019-03-12T07:32:14.219Z,22.18
2019-03-12T07:33:10.540Z,22.10
2019-03-12T07:34:10.508Z,22.14
2019-03-12T07:35:10.999Z,22.10
2019-03-12T07:36:10.397Z,22.14
2019-03-12T07:37:11.771Z,22.20
2019-03-12T07:38:11.670Z,22.13
2019-03-12T07:39:10.391Z,22.15
2019-03-12T07:40:10.509Z,22.14
2019-03-12T07:41:30.330Z,22.17
2019-03-12T07:42:13.761Z,22.14
2019-03-12T07:43:10.073Z,22.14
2019-03-12T07:44:10.430Z,22.10
2019-03-12T07:45:10.591Z,22.14
2019-03-12T07:46:10.548Z,22.10
2019-03-12T07:48:11.183Z,22.13
2019-03-12T07:49:12.410Z,22.17
2019-03-12T07:50:11.201Z,22.20
2019-03-12T07:53:29.110Z,22.18
2019-03-12T07:54:29.605Z,22.15
2019-03-12T07:55:29.952Z,22.23
2019-03-12T07:59:46.663Z,22.15
2019-03-12T08:00:40.835Z,22.17
2019-03-12T08:01:39.874Z,22.14
2019-03-12T08:02:40.010Z,22.10
2019-03-12T08:05:00.077Z,22.14
2019-03-12T08:06:01.619Z,22.07
2019-03-12T08:08:11.273Z,22.15
2019-03-12T08:09:10.147Z,22.13
2019-03-12T08:10:13.619Z,22.18
2019-03-12T08:11:15.947Z,22.17
2019-03-12T08:12:11.523Z,22.06
2019-03-12T08:13:17.662Z,22.11
2019-03-12T08:14:12.460Z,22.17
2019-03-12T08:15:22.931Z,22.17
2019-03-12T08:16:10.840Z,22.17
2019-03-12T08:17:11.185Z,22.20
2019-03-12T08:18:11.335Z,22.10
2019-03-12T08:19:10.083Z,22.13
2019-03-12T08:20:10.812Z,22.13
2019-03-12T08:21:21.432Z,22.26
2019-03-12T08:22:10.689Z,22.18
2019-03-12T08:23:09.532Z,22.26
2019-03-12T08:24:14.630Z,22.13
2019-03-12T08:25:10.645Z,22.20
2019-03-12T08:26:09.910Z,22.17
2019-03-12T08:27:10.901Z,22.13
2019-03-12T08:28:16.494Z,22.14
2019-03-12T08:29:10.992Z,22.13
2019-03-12T08:30:10.913Z,22.11
2019-03-12T08:31:10.531Z,22.15
2019-03-12T08:32:09.369Z,22.11
2019-03-12T08:33:09.563Z,22.20
2019-03-12T08:34:09.701Z,22.22
2019-03-12T08:35:12.239Z,22.15
2019-03-12T08:36:09.877Z,22.25
2019-03-12T08:37:09.835Z,22.14
2019-03-12T08:38:10.592Z,22.10
2019-03-12T08:39:09.321Z,22.10
2019-03-12T08:40:10.294Z,22.20
2019-03-12T08:41:09.405Z,22.13
2019-03-12T08:42:09.257Z,22.15
2019-03-12T08:43:09.423Z,22.20
2019-03-12T08:44:10.985Z,22.26
2019-03-12T08:45:11.066Z,22.11
2019-03-12T08:46:10.421Z,22.11
2019-03-12T08:47:10.929Z,22.23
2019-03-12T08:48:12.600Z,22.23
2019-03-12T08:49:09.277Z,22.14
2019-03-12T08:50:11.061Z,22.18
2019-03-12T08:51:11.428Z,22.20
2019-03-12T08:52:09.628Z,22.29
2019-03-12T08:53:09.231Z,22.23
2019-03-12T08:54:12.614Z,22.25
2019-03-12T08:55:09.436Z,22.25
2019-03-12T08:56:09.198Z,22.25
2019-03-12T08:57:09.190Z,22.26
2019-03-12T08:58:10.206Z,22.29
2019-03-12T08:59:24.846Z,22.15
2019-03-12T09:00:10.344Z,22.26
2019-03-12T09:01:09.146Z,22.28
2019-03-12T09:02:10.000Z,22.15
2019-03-12T09:03:09.119Z,22.32
2019-03-12T09:04:11.045Z,22.23
2019-03-12T09:05:09.254Z,22.22
2019-03-12T09:06:10.510Z,22.18
2019-03-12T09:07:10.934Z,22.26
2019-03-12T09:08:09.936Z,22.23
2019-03-12T09:09:09.575Z,22.28
2019-03-12T09:10:11.934Z,22.26
2019-03-12T09:11:09.227Z,22.22
2019-03-12T09:12:09.198Z,22.23
2019-03-12T09:13:09.935Z,22.25
2019-03-12T09:14:09.938Z,22.17
2019-03-12T09:15:17.665Z,22.29
2019-03-12T09:16:10.306Z,22.17
2019-03-12T09:17:08.966Z,22.22
2019-03-12T09:18:09.073Z,22.28
2019-03-12T09:19:12.938Z,22.29
2019-03-12T09:20:11.194Z,22.29
2019-03-12T09:21:09.835Z,22.25
2019-03-12T09:22:20.111Z,22.28
2019-03-12T09:23:08.992Z,22.25
2019-03-12T09:24:10.630Z,22.28
2019-03-12T09:25:11.658Z,22.28
2019-03-12T09:26:09.057Z,22.22
2019-03-12T09:27:09.010Z,22.22
2019-03-12T09:28:09.553Z,22.30
2019-03-12T09:29:20.477Z,22.29
2019-03-12T09:30:12.205Z,22.29
2019-03-12T09:31:09.982Z,22.28
2019-03-12T09:32:09.702Z,22.26
2019-03-12T09:33:09.267Z,22.23
2019-03-12T09:35:40.579Z,22.25
2019-03-12T09:36:39.915Z,22.33
2019-03-12T09:37:41.148Z,22.32
2019-03-12T09:38:41.147Z,22.26
2019-03-12T09:39:40.163Z,22.25
2019-03-12T09:40:40.156Z,22.18
2019-03-12T09:41:45.551Z,22.13
2019-03-12T09:42:41.727Z,22.15
2019-03-12T09:43:43.225Z,22.11
2019-03-12T09:44:41.943Z,22.08
2019-03-12T09:45:40.808Z,22.17
2019-03-12T09:46:39.929Z,22.26
2019-03-12T09:47:41.574Z,22.28
2019-03-12T09:48:39.782Z,22.25
2019-03-12T09:49:39.808Z,22.28
2019-03-12T09:50:40.730Z,22.30
2019-03-12T09:51:40.729Z,22.36
2019-03-12T09:52:39.779Z,22.44
2019-03-12T09:53:40.307Z,22.33
2019-03-12T09:54:40.317Z,22.47
2019-03-12T09:55:41.390Z,22.36
2019-03-12T09:56:41.228Z,22.47
2019-03-12T09:57:40.674Z,22.44
2019-03-12T09:58:39.993Z,22.39
2019-03-12T09:59:39.906Z,22.39
2019-03-12T10:00:41.808Z,22.36
2019-03-12T10:01:39.723Z,22.39
2019-03-12T10:02:39.929Z,22.30
2019-03-12T10:03:40.425Z,22.30
2019-03-12T10:04:41.077Z,22.35
2019-03-12T10:05:43.828Z,22.36
2019-03-12T10:06:39.667Z,22.32
2019-03-12T10:07:40.277Z,22.30
2019-03-12T10:08:39.716Z,22.38
2019-03-12T10:09:40.078Z,22.36
2019-03-12T10:10:42.837Z,22.33
2019-03-12T10:11:39.744Z,22.38
2019-03-12T10:12:39.635Z,22.33
2019-03-12T10:13:39.754Z,22.32
2019-03-12T10:14:39.543Z,22.32
2019-03-12T10:15:42.621Z,22.36
2019-03-12T10:16:39.741Z,22.39
2019-03-12T10:18:02.555Z,22.35
2019-03-12T10:18:44.206Z,22.38
2019-03-12T10:19:40.273Z,22.38
2019-03-12T10:20:40.789Z,22.36
2019-03-12T10:21:39.867Z,22.39
2019-03-12T10:22:39.814Z,22.39
2019-03-12T10:23:40.888Z,22.36
2019-03-12T10:24:39.408Z,22.43
2019-03-12T10:25:40.739Z,22.32
2019-03-12T10:26:42.238Z,22.41
2019-03-12T10:27:45.618Z,22.33
2019-03-12T10:28:41.345Z,22.38
2019-03-12T10:29:39.518Z,22.39
2019-03-12T10:30:39.806Z,22.38
2019-03-12T10:31:40.241Z,22.32
2019-03-12T10:32:39.410Z,22.44
2019-03-12T10:33:39.745Z,22.35
2019-03-12T10:34:42.179Z,22.39
2019-03-12T10:35:40.246Z,22.38
2019-03-12T10:36:40.144Z,22.43
2019-03-12T10:37:40.761Z,22.47
2019-03-12T10:38:39.227Z,22.36
2019-03-12T10:39:40.742Z,22.41
2019-03-12T10:40:39.299Z,22.44
2019-03-12T10:41:39.478Z,22.41
2019-03-12T10:42:40.745Z,22.38
2019-03-12T10:43:40.198Z,22.47
2019-03-12T10:44:40.446Z,22.39
2019-03-12T10:45:45.652Z,22.33
2019-03-12T10:46:40.796Z,22.41
2019-03-12T10:47:39.358Z,22.33
2019-03-12T10:48:43.989Z,22.38
2019-03-12T10:49:42.301Z,22.45
2019-03-12T10:50:40.369Z,22.44
2019-03-12T10:51:44.239Z,22.48
2019-03-12T11:00:03.167Z,22.54
2019-03-12T11:03:08.571Z,22.60
2019-03-12T11:04:10.593Z,22.55
2019-03-12T11:05:16.062Z,22.50
2019-03-12T11:06:10.499Z,22.54
2019-03-12T11:07:16.324Z,22.63
2019-03-12T11:08:10.189Z,22.59
2019-03-12T11:09:10.148Z,22.65
2019-03-12T11:10:08.374Z,22.63
2019-03-12T11:11:10.627Z,22.63
2019-03-12T11:12:08.528Z,22.68
2019-03-12T11:13:14.305Z,22.60
2019-03-12T11:14:10.324Z,22.68
2019-03-12T11:15:08.907Z,22.55
2019-03-12T11:16:10.857Z,22.59
2019-03-12T11:17:22.018Z,22.54
2019-03-12T11:18:10.369Z,22.53
2019-03-12T11:19:25.003Z,22.62
2019-03-12T11:20:10.768Z,22.65
2019-03-12T11:21:08.226Z,22.59
2019-03-12T11:22:11.230Z,22.65
2019-03-12T11:26:10.197Z,22.54
2019-03-12T11:26:18.766Z,22.66
2019-03-12T11:27:19.219Z,22.51
2019-03-12T11:28:19.229Z,22.60
2019-03-12T11:29:19.733Z,22.62
2019-03-12T11:30:18.106Z,22.59
2019-03-12T11:31:18.399Z,22.48
2019-03-12T11:32:28.271Z,22.57
2019-03-12T11:33:19.315Z,22.57
2019-03-12T11:34:18.567Z,22.54
2019-03-12T11:35:18.064Z,22.53
2019-03-12T11:36:18.031Z,22.54
2019-03-12T11:37:24.761Z,22.55
2019-03-12T11:38:19.006Z,22.69
2019-03-12T11:39:19.194Z,22.62
2019-03-12T11:40:17.994Z,22.36
2019-03-12T11:41:19.237Z,22.38
2019-03-12T11:42:17.997Z,22.47
2019-03-12T11:43:19.226Z,22.41
2019-03-12T11:44:17.952Z,22.45
2019-03-12T11:45:20.007Z,22.50
2019-03-12T11:46:17.911Z,22.54
2019-03-12T11:47:18.174Z,22.55
2019-03-12T11:48:17.993Z,22.53
2019-03-12T11:49:22.800Z,22.51
2019-03-12T11:50:28.652Z,22.53
2019-03-12T11:51:20.210Z,22.41
2019-03-12T11:52:17.892Z,22.36
2019-03-12T11:53:18.726Z,22.45
2019-03-12T11:54:19.259Z,22.41
2019-03-12T11:55:19.057Z,22.36
2019-03-12T11:56:18.405Z,22.36
2019-03-12T11:57:19.258Z,22.45
2019-03-12T11:58:18.744Z,22.48
2019-03-12T11:59:18.818Z,22.50
2019-03-12T12:00:19.456Z,22.44
2019-03-12T12:01:19.727Z,22.41
2019-03-12T12:02:17.742Z,22.51
2019-03-12T12:03:17.984Z,22.48
2019-03-12T12:04:18.095Z,22.50
2019-03-12T12:05:17.817Z,22.53
2019-03-12T12:06:28.660Z,22.51
2019-03-12T12:07:18.770Z,22.53
2019-03-12T12:08:22.557Z,22.54
2019-03-12T12:09:18.316Z,22.60
2019-03-12T12:10:18.733Z,22.65
2019-03-12T12:11:18.433Z,22.65
2019-03-12T12:12:17.601Z,22.70
2019-03-12T12:13:18.470Z,22.66
2019-03-12T12:14:17.944Z,22.73
2019-03-12T12:15:18.770Z,22.76
2019-03-12T12:16:25.343Z,22.73
2019-03-12T12:17:17.557Z,22.75
2019-03-12T12:18:18.188Z,22.68
2019-03-12T12:19:17.999Z,22.66
2019-03-12T12:22:05.051Z,22.63
2019-03-12T12:23:06.205Z,22.63
2019-03-12T12:24:06.009Z,22.69
2019-03-12T12:25:05.462Z,22.73
2019-03-12T12:26:06.851Z,22.78
2019-03-12T12:28:32.830Z,22.80
2019-03-12T12:29:33.141Z,22.76
2019-03-12T12:30:32.648Z,22.75
2019-03-12T12:31:32.349Z,22.75
2019-03-12T12:32:34.077Z,22.78
2019-03-12T12:33:32.479Z,22.68
2019-03-12T12:34:38.979Z,22.68
2019-03-12T12:35:36.615Z,22.72
2019-03-12T12:36:32.290Z,22.75
2019-03-12T12:37:34.657Z,22.70
2019-03-12T12:38:32.819Z,22.69
2019-03-12T12:39:34.905Z,22.76
2019-03-12T12:40:33.289Z,22.73
2019-03-12T12:41:32.556Z,22.73
2019-03-12T12:42:32.247Z,22.78
2019-03-12T12:43:33.575Z,22.72
2019-03-12T12:44:33.674Z,22.80
2019-03-12T12:45:33.684Z,22.66
2019-03-12T12:46:32.181Z,22.69
2019-03-12T12:47:32.327Z,22.72
2019-03-12T12:48:32.632Z,22.72
2019-03-12T12:49:32.493Z,22.73
2019-03-12T12:50:32.271Z,22.72
2019-03-12T12:51:32.550Z,22.72
2019-03-12T12:52:32.122Z,22.76
2019-03-12T12:53:33.558Z,22.76
2019-03-12T12:54:32.094Z,22.83
2019-03-12T12:55:32.369Z,22.81
2019-03-12T12:56:32.617Z,22.81
2019-03-12T12:57:33.093Z,22.78
2019-03-12T12:58:36.028Z,22.76
2019-03-12T12:59:33.221Z,22.78
2019-03-12T13:00:32.029Z,22.70
2019-03-12T13:01:32.534Z,22.73
2019-03-12T13:02:33.188Z,22.69
2019-03-12T13:03:32.877Z,22.76
2019-03-12T13:04:32.618Z,22.73
2019-03-12T13:05:32.014Z,22.65
2019-03-12T13:06:31.969Z,22.66
2019-03-12T13:07:32.441Z,22.63
2019-03-12T13:08:32.131Z,22.65
2019-03-12T13:09:32.428Z,22.62
2019-03-12T13:10:31.920Z,22.51
2019-03-12T13:11:36.960Z,22.55
2019-03-12T13:12:31.986Z,22.57
2019-03-12T13:13:32.039Z,22.54
2019-03-12T13:14:40.977Z,22.59
2019-03-12T13:15:32.859Z,22.57
2019-03-12T13:16:32.899Z,22.54
2019-03-12T13:17:33.508Z,22.53
2019-03-12T13:18:31.990Z,22.53
2019-03-12T13:19:31.989Z,22.59
2019-03-12T13:20:31.796Z,22.48
2019-03-12T13:21:32.124Z,22.45
2019-03-12T13:22:33.805Z,22.44
2019-03-12T13:23:36.145Z,22.51
2019-03-12T13:24:32.819Z,22.44